Time;durP1;ratioP1;P1;durP2;ratioP2;P2;SDS_P1;SDS_P2;PMS_P1;PMS_P2;Temp;Humidity;BMP_temperature;BMP_pressure;BME280_temperature;BME280_humidity;BME280_pressure;Samples;Min_cycle;Max_cycle;Signal;HPM_P1;HPM_P2
2023/03/24 00:02:15;;;;;;;0.50;0.50;;;;;;;9.23;100.00;99654.97;5130031;27;20190;-62
2023/03/24 00:04:42;;;;;;;0.93;0.93;;;;;;;9.21;100.00;99651.59;5120555;27;20214;-62
2023/03/24 00:07:13;;;;;;;0.60;0.60;;;;;;;9.17;100.00;99655.09;5120723;27;20201;-62
2023/03/24 00:09:41;;;;;;;0.60;0.60;;;;;;;9.16;100.00;99648.28;5132077;27;20676;-62
2023/03/24 00:12:10;;;;;;;0.50;0.50;;;;;;;9.00;100.00;99641.81;5123457;27;20254;-62
2023/03/24 00:14:38;;;;;;;0.63;0.63;;;;;;;8.96;100.00;99640.16;5124300;27;20277;-62
2023/03/24 00:17:05;;;;;;;0.60;0.60;;;;;;;8.99;100.00;99640.09;5121611;27;20194;-62
2023/03/24 00:19:37;;;;;;;0.57;0.57;;;;;;;8.98;100.00;99639.25;5123732;27;20198;-62
2023/03/24 00:22:04;;;;;;;0.60;0.60;;;;;;;8.97;100.00;99641.88;5123949;27;20195;-62
2023/03/24 00:24:31;;;;;;;0.60;0.60;;;;;;;8.96;100.00;99645.28;5121317;27;20210;-61
2023/03/24 00:26:58;;;;;;;0.50;0.50;;;;;;;8.93;100.00;99632.56;5118227;27;20689;-62
2023/03/24 00:29:26;;;;;;;0.50;0.50;;;;;;;8.89;100.00;99630.94;5124189;27;20228;-62
2023/03/24 00:31:54;;;;;;;0.43;0.43;;;;;;;8.88;100.00;99636.94;5119880;27;20581;-62
2023/03/24 00:34:21;;;;;;;0.50;0.50;;;;;;;8.84;100.00;99635.31;5130454;27;20216;-62
2023/03/24 00:36:49;;;;;;;0.67;0.67;;;;;;;8.83;100.00;99636.16;5126209;27;20198;-62
2023/03/24 00:39:17;;;;;;;0.60;0.60;;;;;;;8.79;100.00;99631.97;5131347;27;20635;-62
2023/03/24 00:41:44;;;;;;;1.10;1.10;;;;;;;8.73;100.00;99632.09;5127613;27;20256;-62
2023/03/24 00:44:16;;;;;;;2.03;0.90;;;;;;;8.68;100.00;99633.91;5118420;27;20242;-62
2023/03/24 00:46:45;;;;;;;0.83;0.83;;;;;;;8.53;100.00;99624.81;5125607;27;20233;-61
2023/03/24 00:49:14;;;;;;;0.70;0.70;;;;;;;8.55;100.00;99632.44;5126129;27;20273;-61
2023/03/24 00:51:42;;;;;;;0.67;0.67;;;;;;;8.37;100.00;99614.03;5126218;27;20194;-62
2023/03/24 00:54:11;;;;;;;0.70;0.70;;;;;;;8.44;100.00;99630.09;5121115;27;20232;-62
2023/03/24 00:56:40;;;;;;;0.40;0.40;;;;;;;8.40;100.00;99623.38;5129502;27;20317;-62
2023/03/24 00:59:08;;;;;;;0.50;0.50;;;;;;;8.41;100.00;99615.66;5123602;27;20194;-62
2023/03/24 01:01:36;;;;;;;0.50;0.50;;;;;;;8.41;100.00;99612.25;5117811;27;20198;-62
2023/03/24 01:04:05;;;;;;;0.47;0.47;;;;;;;8.39;100.00;99612.31;5123696;28;20209;-62
2023/03/24 01:06:35;;;;;;;0.47;0.47;;;;;;;8.39;100.00;99607.19;5127232;28;20198;-61
2023/03/24 01:09:04;;;;;;;0.60;0.60;;;;;;;8.39;100.00;99606.34;5120284;28;20190;-62
2023/03/24 01:11:37;;;;;;;0.50;0.50;;;;;;;8.38;100.00;99610.59;5131224;28;20194;-62
2023/03/24 01:14:04;;;;;;;0.50;0.50;;;;;;;8.32;100.00;99600.50;5120248;28;20201;-62
2023/03/24 01:16:31;;;;;;;0.50;0.50;;;;;;;8.30;100.00;99609.88;5127748;28;20251;-62
2023/03/24 01:18:59;;;;;;;0.80;0.80;;;;;;;8.21;100.00;99609.16;5130858;28;20197;-61
2023/03/24 01:21:27;;;;;;;0.53;0.53;;;;;;;8.16;100.00;99604.16;5126384;28;20665;-62
2023/03/24 01:23:54;;;;;;;0.53;0.53;;;;;;;8.15;100.00;99610.13;5123660;28;20210;-61
2023/03/24 01:26:21;;;;;;;0.40;0.40;;;;;;;8.06;100.00;99600.06;5124950;28;20205;-62
2023/03/24 01:28:48;;;;;;;0.50;0.50;;;;;;;7.94;100.00;99582.41;5126468;28;20190;-62
2023/03/24 01:31:15;;;;;;;0.50;0.50;;;;;;;8.01;100.00;99596.78;5130355;28;20194;-61
2023/03/24 01:33:42;;;;;;;0.50;0.50;;;;;;;7.90;100.00;99591.00;5130809;28;20277;-61
2023/03/24 01:36:09;;;;;;;0.70;0.70;;;;;;;7.91;100.00;99595.25;5128531;28;20206;-62
2023/03/24 01:38:38;;;;;;;0.50;0.50;;;;;;;7.93;100.00;99583.28;5127462;28;20190;-61
2023/03/24 01:41:06;;;;;;;0.40;0.40;;;;;;;7.87;100.00;99580.84;5123016;27;20212;-61
2023/03/24 01:43:34;;;;;;;0.70;0.70;;;;;;;7.88;100.00;99577.44;5133437;27;20321;-62
2023/03/24 01:46:12;;;;;;;0.70;0.70;;;;;;;7.86;100.00;99579.13;5131470;27;20201;-62
2023/03/24 01:48:43;;;;;;;0.50;0.50;;;;;;;7.85;100.00;99587.69;5134638;27;20186;-61
2023/03/24 01:51:15;;;;;;;0.60;0.60;;;;;;;7.85;100.00;99587.69;5133543;27;20759;-61
2023/03/24 01:53:48;;;;;;;0.70;0.70;;;;;;;7.84;100.00;99575.78;5128221;27;20229;-61
2023/03/24 01:56:15;;;;;;;0.70;0.70;;;;;;;7.81;100.00;99578.38;5133286;27;20240;-62
2023/03/24 01:58:48;;;;;;;0.70;0.70;;;;;;;7.78;100.00;99581.84;5130764;27;20230;-61
2023/03/24 02:01:16;;;;;;;0.50;0.50;;;;;;;7.78;100.00;99581.00;5125178;27;20247;-61
2023/03/24 02:03:44;;;;;;;0.60;0.60;;;;;;;7.77;100.00;99585.25;5119508;27;21042;-61
2023/03/24 02:06:12;;;;;;;0.60;0.60;;;;;;;7.74;100.00;99581.91;5127895;27;20285;-62
2023/03/24 02:08:42;;;;;;;0.90;0.90;;;;;;;7.71;100.00;99580.25;5115225;27;20259;-61
2023/03/24 02:11:10;;;;;;;1.00;1.00;;;;;;;7.69;100.00;99583.69;5123714;27;20198;-61
2023/03/24 02:13:37;;;;;;;0.50;0.50;;;;;;;7.58;100.00;99583.84;5125274;27;20202;-62
2023/03/24 02:16:18;;;;;;;0.67;0.67;;;;;;;7.47;100.00;99587.41;5120794;27;20305;-61
2023/03/24 02:18:53;;;;;;;0.50;0.50;;;;;;;7.46;100.00;99593.41;5129162;27;20194;-61
2023/03/24 02:21:59;;;;;;;0.50;0.50;;;;;;;7.38;100.00;99586.69;5119912;27;20247;-61
2023/03/24 02:24:58;;;;;;;0.50;0.50;;;;;;;7.34;100.00;99589.28;5122330;27;20232;-62
2023/03/24 02:27:54;;;;;;;0.50;0.50;;;;;;;7.27;100.00;99588.53;5120797;27;20285;-61
2023/03/24 02:30:39;;;;;;;0.60;0.60;;;;;;;7.21;100.00;99588.63;5119971;27;20202;-62
2023/03/24 02:33:38;;;;;;;0.70;0.70;;;;;;;7.14;100.00;99587.00;5118941;27;20194;-61
2023/03/24 02:36:40;;;;;;;0.60;0.60;;;;;;;7.16;100.00;99595.50;5117044;27;20195;-62
2023/03/24 02:39:42;;;;;;;0.57;0.57;;;;;;;7.14;100.00;99597.22;5127846;27;20718;-62
2023/03/24 02:42:33;;;;;;;0.70;0.70;;;;;;;7.14;100.00;99601.50;5125507;27;20277;-62
2023/03/24 02:45:10;;;;;;;0.50;0.50;;;;;;;7.14;100.00;99609.94;5129646;27;20274;-61
2023/03/24 02:47:46;;;;;;;0.50;0.50;;;;;;;7.01;100.00;99600.78;5126740;27;20573;-61
2023/03/24 02:50:20;;;;;;;0.53;0.53;;;;;;;6.81;100.00;99579.81;5125506;27;20189;-61
2023/03/24 02:52:53;;;;;;;0.80;0.80;;;;;;;6.96;100.00;99612.75;5125751;27;20208;-61
2023/03/24 02:55:27;;;;;;;1.00;1.00;;;;;;;6.88;100.00;99602.63;5128023;27;20317;-61
2023/03/24 02:57:58;;;;;;;0.50;0.50;;;;;;;6.95;100.00;99611.06;5126624;27;20286;-62
2023/03/24 03:00:35;;;;;;;0.70;0.70;;;;;;;6.89;100.00;99611.13;5129238;27;20224;-62
2023/03/24 03:03:08;;;;;;;0.50;0.50;;;;;;;6.97;100.00;99622.09;5129832;27;20198;-61
2023/03/24 03:05:40;;;;;;;0.50;0.50;;;;;;;6.84;100.00;99607.81;5125505;27;20212;-62
2023/03/24 03:08:12;;;;;;;0.70;0.70;;;;;;;6.73;100.00;99579.03;5126562;27;20208;-62
2023/03/24 03:10:43;;;;;;;0.63;0.63;;;;;;;6.95;100.00;99636.53;5129530;27;20281;-61
2023/03/24 03:13:16;;;;;;;0.60;0.60;;;;;;;6.92;100.00;99646.78;5132621;27;20212;-61
2023/03/24 03:15:48;;;;;;;0.53;0.53;;;;;;;6.91;100.00;99655.28;5129135;27;20196;-61
2023/03/24 03:18:21;;;;;;;0.50;0.50;;;;;;;6.86;100.00;99647.69;5130795;27;20285;-61
2023/03/24 03:20:53;;;;;;;0.50;0.50;;;;;;;6.92;100.00;99651.88;5124840;27;20621;-62
2023/03/24 03:23:25;;;;;;;0.60;0.60;;;;;;;6.92;100.00;99641.66;5131864;27;20198;-62
2023/03/24 03:26:04;;;;;;;0.53;0.53;;;;;;;6.78;100.00;99624.00;5127489;27;20210;-61
2023/03/24 03:28:32;;;;;;;1.33;1.33;;;;;;;6.84;100.00;99636.69;5125218;27;20570;-61
2023/03/24 03:31:05;;;;;;;0.40;0.40;;;;;;;6.80;100.00;99624.84;5126302;27;20205;-61
2023/03/24 03:33:38;;;;;;;0.50;0.50;;;;;;;6.74;100.00;99613.88;5131896;27;20205;-62
2023/03/24 03:36:10;;;;;;;0.60;0.60;;;;;;;6.61;100.00;99594.47;5130481;27;20289;-61
2023/03/24 03:38:46;;;;;;;0.50;0.50;;;;;;;6.50;100.00;99593.75;5132557;27;20255;-61
2023/03/24 03:41:17;;;;;;;0.50;0.50;;;;;;;6.45;100.00;99585.31;5129991;27;20794;-61
2023/03/24 03:43:45;;;;;;;0.60;0.60;;;;;;;6.41;100.00;99586.19;5127623;27;20202;-62
2023/03/24 03:46:13;;;;;;;0.70;0.70;;;;;;;6.38;100.00;99581.16;5129871;27;20273;-61
2023/03/24 03:48:41;;;;;;;0.50;0.50;;;;;;;6.35;100.00;99584.56;5131643;27;20198;-61
2023/03/24 03:51:08;;;;;;;0.60;0.60;;;;;;;6.37;100.00;99587.94;5127154;27;20202;-61
2023/03/24 03:53:43;;;;;;;0.50;0.50;;;;;;;6.31;100.00;99570.19;5126310;27;20202;-61
2023/03/24 03:56:11;;;;;;;0.57;0.57;;;;;;;6.37;100.00;99584.53;5117376;27;20694;-61
2023/03/24 03:58:41;;;;;;;0.50;0.50;;;;;;;6.42;100.00;99587.91;5127619;27;20198;-61
2023/03/24 04:01:12;;;;;;;0.73;0.73;;;;;;;6.34;100.00;99576.09;5118504;27;20666;-61
2023/03/24 04:03:58;;;;;;;0.60;0.60;;;;;;;6.37;100.00;99574.34;5117447;27;20193;-62
2023/03/24 04:06:36;;;;;;;0.97;0.97;;;;;;;6.45;100.00;99582.78;5113394;27;20264;-61
2023/03/24 04:09:13;;;;;;;0.70;0.70;;;;;;;6.45;100.00;99582.78;5121247;27;20194;-62
2023/03/24 04:12:11;;;;;;;0.40;0.40;;;;;;;6.39;100.00;99583.69;5115074;27;20230;-61
2023/03/24 04:15:06;;;;;;;0.50;0.50;;;;;;;6.33;100.00;99589.66;5102709;27;20191;-61
2023/03/24 04:17:50;;;;;;;0.50;0.50;;;;;;;6.22;100.00;99596.59;5121486;27;20195;-61
2023/03/24 04:20:23;;;;;;;0.50;0.50;;;;;;;6.12;100.00;99600.06;5129876;27;20205;-61
2023/03/24 04:23:04;;;;;;;0.50;0.50;;;;;;;5.89;100.00;99599.41;5120069;27;20194;-61
2023/03/24 04:25:39;;;;;;;0.83;0.83;;;;;;;5.80;100.00;99596.91;5121347;27;20210;-61
2023/03/24 04:28:13;;;;;;;0.70;0.70;;;;;;;5.79;100.00;99587.59;5125256;27;20200;-61
2023/03/24 04:30:44;;;;;;;0.50;0.50;;;;;;;5.78;100.00;99578.28;5131908;27;20197;-61
2023/03/24 04:33:21;;;;;;;0.60;0.60;;;;;;;5.75;100.00;99589.31;5117773;27;20191;-61
2023/03/24 04:35:53;;;;;;;0.60;0.60;;;;;;;5.79;100.00;99593.53;5131092;27;20193;-61
2023/03/24 04:38:26;;;;;;;0.60;0.60;;;;;;;5.73;100.00;99585.09;5121012;27;21258;-61
2023/03/24 04:40:55;;;;;;;0.50;0.50;;;;;;;5.64;100.00;99590.25;5127223;27;20696;-61
2023/03/24 04:43:27;;;;;;;0.70;0.70;;;;;;;5.36;100.00;99594.69;5127602;27;20198;-61
2023/03/24 04:45:56;;;;;;;0.50;0.50;;;;;;;5.35;100.00;99592.16;5128983;27;20214;-61
2023/03/24 04:48:24;;;;;;;0.80;0.80;;;;;;;5.23;100.00;99585.47;5126407;27;20198;-61
2023/03/24 04:50:55;;;;;;;0.50;0.50;;;;;;;5.18;100.00;99599.88;5117380;27;20206;-62
2023/03/24 04:53:22;;;;;;;0.67;0.67;;;;;;;5.09;100.00;99599.91;5125539;27;20213;-61
2023/03/24 04:56:13;;;;;;;1.17;1.17;;;;;;;5.23;100.00;99609.16;5119008;27;20221;-61
2023/03/24 04:58:40;;;;;;;0.70;0.70;;;;;;;5.23;100.00;99608.34;5123243;27;20198;-61
2023/03/24 05:01:08;;;;;;;0.60;0.60;;;;;;;5.24;100.00;99610.00;5128221;27;20635;-61
2023/03/24 05:03:36;;;;;;;0.77;0.77;;;;;;;5.31;100.00;99614.19;5119251;28;20281;-61
2023/03/24 05:06:04;;;;;;;0.60;0.60;;;;;;;5.34;100.00;99615.88;5125167;28;20308;-62
2023/03/24 05:08:32;;;;;;;0.60;0.60;;;;;;;5.50;100.00;99615.78;5122090;28;20662;-60
2023/03/24 05:10:58;;;;;;;0.67;0.67;;;;;;;5.68;100.00;99622.47;5122167;28;20605;-61
2023/03/24 05:13:25;;;;;;;0.60;0.60;;;;;;;5.85;100.00;99623.16;5123999;28;20202;-60
2023/03/24 05:15:53;;;;;;;0.60;0.60;;;;;;;5.99;100.00;99629.03;5124416;27;20195;-60
2023/03/24 05:18:21;;;;;;;0.50;0.50;;;;;;;6.20;100.00;99630.56;5124954;27;20577;-60
2023/03/24 05:20:48;;;;;;;0.60;0.60;;;;;;;6.43;100.00;99635.44;5129963;27;20198;-60
2023/03/24 05:23:15;;;;;;;0.70;0.70;;;;;;;6.68;100.00;99631.78;5124918;27;20666;-60
2023/03/24 05:25:41;;;;;;;0.50;0.50;;;;;;;6.91;100.00;99640.00;5122659;27;20214;-60
2023/03/24 05:28:08;;;;;;;0.50;0.50;;;;;;;7.14;100.00;99652.47;5130488;27;20194;-60
2023/03/24 05:30:35;;;;;;;0.83;0.83;;;;;;;7.25;100.00;99651.47;5128446;27;20554;-60
2023/03/24 05:33:02;;;;;;;0.50;0.50;;;;;;;7.43;100.00;99647.00;5128868;27;20345;-59
2023/03/24 05:35:30;;;;;;;0.60;0.60;;;;;;;7.66;100.00;99652.59;5126614;27;20193;-60
2023/03/24 05:37:57;;;;;;;0.50;0.50;;;;;;;7.91;100.00;99643.72;5127062;27;20194;-61
2023/03/24 05:40:24;;;;;;;0.50;0.50;;;;;;;8.13;100.00;99649.34;5127169;27;20194;-60
2023/03/24 05:42:51;;;;;;;0.60;0.60;;;;;;;8.34;100.00;99639.63;5131643;27;20206;-61
2023/03/24 05:45:18;;;;;;;0.50;0.50;;;;;;;8.60;100.00;99646.81;5134621;27;20401;-61
2023/03/24 05:47:46;;;;;;;0.60;0.60;;;;;;;8.91;99.83;99657.34;5123307;27;20202;-60
2023/03/24 05:50:13;;;;;;;0.57;0.57;;;;;;;9.17;98.53;99650.00;5127504;27;20197;-61
2023/03/24 05:52:41;;;;;;;0.40;0.40;;;;;;;9.39;98.05;99651.22;5123104;27;20262;-58
2023/03/24 05:55:09;;;;;;;0.50;0.50;;;;;;;9.63;97.53;99660.06;5123384;27;20274;-58
2023/03/24 05:57:36;;;;;;;0.43;0.43;;;;;;;9.87;96.37;99664.63;5128176;27;20194;-59
2023/03/24 06:00:06;;;;;;;0.50;0.50;;;;;;;10.14;96.05;99657.22;5128619;27;20190;-59
2023/03/24 06:02:33;;;;;;;0.50;0.50;;;;;;;10.39;94.50;99668.53;5125898;27;20222;-60
2023/03/24 06:05:00;;;;;;;0.60;0.60;;;;;;;10.58;94.14;99668.91;5127572;27;20665;-59
2023/03/24 06:07:29;;;;;;;0.50;0.50;;;;;;;10.74;93.79;99672.75;5123903;27;20214;-60
2023/03/24 06:10:01;;;;;;;0.50;0.50;;;;;;;10.85;94.44;99657.94;5127212;27;20208;-59
2023/03/24 06:12:29;;;;;;;0.50;0.50;;;;;;;11.05;94.75;99673.59;5121374;27;20210;-59
2023/03/24 06:14:55;;;;;;;0.50;0.50;;;;;;;11.09;93.60;99654.69;5126519;27;20709;-59
2023/03/24 06:17:23;;;;;;;0.40;0.40;;;;;;;11.34;93.34;99673.63;5131497;27;20684;-60
2023/03/24 06:19:50;;;;;;;0.40;0.40;;;;;;;11.40;92.68;99677.75;5125057;27;20290;-60
2023/03/24 06:22:17;;;;;;;0.93;0.93;;;;;;;11.58;92.92;99669.50;5125867;27;20205;-60
2023/03/24 06:24:45;;;;;;;0.47;0.47;;;;;;;11.67;92.20;99665.81;5131857;27;20194;-60
2023/03/24 06:27:14;;;;;;;0.63;0.63;;;;;;;11.79;92.01;99660.34;5121021;27;20290;-59
2023/03/24 06:29:42;;;;;;;0.70;0.70;;;;;;;11.93;91.11;99660.75;5126572;27;20198;-58
2023/03/24 06:32:09;;;;;;;0.40;0.40;;;;;;;12.00;91.40;99660.50;5130016;27;20194;-60
2023/03/24 06:34:37;;;;;;;0.60;0.60;;;;;;;12.16;90.98;99660.84;5123039;27;20222;-59
2023/03/24 06:37:04;;;;;;;0.40;0.40;;;;;;;12.18;90.20;99669.34;5119324;27;20190;-60
2023/03/24 06:39:31;;;;;;;0.50;0.50;;;;;;;12.31;89.72;99668.06;5125314;27;20693;-59
2023/03/24 06:41:58;;;;;;;0.40;0.40;;;;;;;12.46;88.67;99684.72;5122738;27;20202;-60
2023/03/24 06:44:26;;;;;;;0.47;0.47;;;;;;;12.51;89.48;99665.66;5127212;27;20194;-59
2023/03/24 06:46:53;;;;;;;0.40;0.40;;;;;;;12.59;88.03;99680.84;5125756;27;20593;-58
2023/03/24 06:49:20;;;;;;;0.60;0.60;;;;;;;12.64;86.47;99674.66;5125154;27;20599;-59
2023/03/24 06:51:46;;;;;;;0.50;0.50;;;;;;;12.84;86.80;99675.69;5126548;27;20642;-60
2023/03/24 06:54:13;;;;;;;0.50;0.50;;;;;;;13.01;86.54;99675.94;5127359;27;20209;-60
2023/03/24 06:56:40;;;;;;;0.70;0.70;;;;;;;12.99;85.48;99682.88;5127632;27;20232;-59
2023/03/24 06:59:07;;;;;;;0.50;0.50;;;;;;;13.19;87.04;99683.03;5132516;27;20667;-61
2023/03/24 07:01:37;;;;;;;0.50;0.50;;;;;;;13.41;86.97;99683.91;5128142;27;20648;-60
2023/03/24 07:04:04;;;;;;;0.50;0.50;;;;;;;13.41;87.18;99690.84;5126251;27;20315;-60
2023/03/24 07:06:32;;;;;;;0.60;0.60;;;;;;;13.62;86.43;99692.59;5130851;27;20205;-60
2023/03/24 07:08:59;;;;;;;0.50;0.50;;;;;;;13.85;85.70;99689.13;5126921;27;20572;-60
2023/03/24 07:11:28;;;;;;;0.50;0.50;;;;;;;13.94;84.02;99696.50;5129518;27;20253;-60
2023/03/24 07:13:55;;;;;;;0.50;0.50;;;;;;;13.92;84.43;99690.59;5131034;27;20198;-60
2023/03/24 07:16:22;;;;;;;0.50;0.50;;;;;;;13.84;84.38;99692.59;5125090;27;20255;-60
2023/03/24 07:18:51;;;;;;;0.83;0.83;;;;;;;13.75;84.65;99693.81;5123536;27;20202;-59
2023/03/24 07:21:18;;;;;;;0.60;0.60;;;;;;;13.94;84.17;99699.09;5126988;27;20760;-59
2023/03/24 07:23:44;;;;;;;0.70;0.70;;;;;;;14.04;86.34;99687.50;5120526;27;20284;-59
2023/03/24 07:26:11;;;;;;;0.50;0.50;;;;;;;14.33;82.88;99694.94;5123558;27;20213;-59
2023/03/24 07:28:38;;;;;;;2.23;0.83;;;;;;;14.33;81.88;99697.53;5122013;27;20208;-60
2023/03/24 07:31:09;;;;;;;0.40;0.40;;;;;;;14.30;81.65;99687.31;5126056;27;20195;-60
2023/03/24 07:33:37;;;;;;;1.17;1.17;;;;;;;14.47;81.91;99700.41;5124648;27;20646;-59
2023/03/24 07:36:06;;;;;;;0.97;0.97;;;;;;;14.77;80.82;99697.41;5126676;27;20240;-60
2023/03/24 07:38:33;;;;;;;0.40;0.40;;;;;;;14.87;80.61;99689.22;5122214;27;20755;-60
2023/03/24 07:41:01;;;;;;;0.50;0.50;;;;;;;14.84;80.54;99693.66;5123802;27;20255;-60
2023/03/24 07:43:27;;;;;;;1.00;0.83;;;;;;;14.84;82.44;99693.66;5128232;27;20198;-60
2023/03/24 07:45:54;;;;;;;0.50;0.50;;;;;;;14.88;81.73;99688.31;5125449;27;20319;-60
2023/03/24 07:48:21;;;;;;;0.70;0.70;;;;;;;15.17;80.13;99682.72;5130894;27;20198;-66
2023/03/24 07:50:48;;;;;;;0.57;0.57;;;;;;;15.44;80.08;99677.25;5122545;27;20203;-66
2023/03/24 07:53:18;;;;;;;0.50;0.50;;;;;;;15.74;78.72;99679.25;5124265;27;20202;-66
2023/03/24 07:55:45;;;;;;;0.60;0.60;;;;;;;15.86;77.38;99682.19;5115037;27;20243;-66
2023/03/24 07:58:12;;;;;;;0.40;0.40;;;;;;;16.01;78.28;99678.88;5119468;27;20950;-66
2023/03/24 08:00:39;;;;;;;0.53;0.53;;;;;;;16.17;78.24;99672.06;5127409;27;20202;-66
2023/03/24 08:03:08;;;;;;;1.00;1.00;;;;;;;16.29;78.12;99674.03;5121644;27;20222;-66
2023/03/24 08:05:35;;;;;;;0.80;0.80;;;;;;;16.47;78.61;99667.97;5119734;27;20309;-66
2023/03/24 08:08:05;;;;;;;0.60;0.60;;;;;;;16.62;74.41;99674.16;5124249;27;20592;-66
2023/03/24 08:10:34;;;;;;;0.50;0.50;;;;;;;16.83;75.69;99677.41;5126502;27;20197;-65
2023/03/24 08:13:00;;;;;;;0.53;0.53;;;;;;;16.78;75.31;99670.72;5128194;27;20285;-66
2023/03/24 08:15:28;;;;;;;0.50;0.50;;;;;;;16.93;76.21;99671.66;5128743;27;20210;-60
2023/03/24 08:17:56;;;;;;;1.23;1.23;;;;;;;16.87;73.57;99673.72;5118856;27;20198;-59
2023/03/24 08:20:25;;;;;;;0.63;0.63;;;;;;;16.82;75.08;99670.56;5122119;27;20198;-59
2023/03/24 08:22:53;;;;;;;1.07;1.07;;;;;;;16.90;73.11;99655.47;5123408;27;20198;-59
2023/03/24 08:25:22;;;;;;;0.63;0.63;;;;;;;17.07;72.60;99665.78;5122060;27;20259;-59
2023/03/24 08:27:51;;;;;;;0.40;0.40;;;;;;;17.02;71.89;99658.25;5123175;27;20195;-60
2023/03/24 08:30:20;;;;;;;0.60;0.60;;;;;;;17.03;72.41;99661.66;5126213;27;20213;-61
2023/03/24 08:32:48;;;;;;;1.03;1.03;;;;;;;16.68;73.88;99648.78;5126480;27;20657;-61
2023/03/24 08:35:18;;;;;;;3.40;0.73;;;;;;;17.05;73.13;99652.06;5123787;27;20198;-62
2023/03/24 08:37:45;;;;;;;0.77;0.77;;;;;;;17.15;74.01;99638.56;5123550;27;20263;-62
2023/03/24 08:40:18;;;;;;;0.70;0.70;;;;;;;17.13;72.65;99635.19;5124154;27;20220;-62
2023/03/24 08:42:47;;;;;;;0.50;0.50;;;;;;;17.15;72.32;99638.56;5121490;27;20203;-62
2023/03/24 08:45:19;;;;;;;0.50;0.50;;;;;;;17.21;72.99;99637.38;5124251;27;20198;-61
2023/03/24 08:47:46;;;;;;;0.70;0.70;;;;;;;16.97;72.08;99643.84;5124491;27;20217;-61
2023/03/24 08:50:16;;;;;;;0.50;0.50;;;;;;;16.98;72.43;99640.34;5119899;27;20206;-61
2023/03/24 08:52:46;;;;;;;0.60;0.60;;;;;;;16.52;74.91;99637.50;5118485;27;20213;-61
2023/03/24 08:55:14;;;;;;;0.47;0.47;;;;;;;16.71;75.64;99633.09;5122161;27;20316;-61
2023/03/24 08:57:41;;;;;;;2.53;0.90;;;;;;;17.10;78.60;99627.59;5119813;27;20198;-61
2023/03/24 09:00:14;;;;;;;0.50;0.50;;;;;;;17.19;73.87;99628.84;5123746;27;20202;-61
2023/03/24 09:02:43;;;;;;;0.80;0.80;;;;;;;17.40;74.43;99627.72;5120320;27;20573;-60
2023/03/24 09:05:11;;;;;;;0.53;0.53;;;;;;;17.46;70.15;99629.97;5126416;27;20212;-61
2023/03/24 09:07:38;;;;;;;0.63;0.63;;;;;;;17.31;68.28;99633.41;5118450;28;20274;-61
2023/03/24 09:10:06;;;;;;;0.43;0.43;;;;;;;17.47;69.76;99631.66;5121322;28;20684;-61
2023/03/24 09:12:36;;;;;;;0.50;0.50;;;;;;;17.75;70.89;99624.03;5122036;28;20198;-62
2023/03/24 09:15:05;;;;;;;0.50;0.50;;;;;;;17.74;68.65;99624.94;5124484;27;20267;-61
2023/03/24 09:17:33;;;;;;;0.50;0.50;;;;;;;17.95;67.75;99624.69;5121988;27;20256;-62
2023/03/24 09:20:04;;;;;;;0.40;0.40;;;;;;;18.09;69.62;99611.75;5122373;28;20198;-61
2023/03/24 09:22:31;;;;;;;0.40;0.40;;;;;;;18.36;68.27;99629.16;5122891;28;20202;-62
2023/03/24 09:24:57;;;;;;;0.60;0.60;;;;;;;18.38;69.04;99617.84;5124787;27;20210;-62
2023/03/24 09:27:24;;;;;;;1.13;0.87;;;;;;;18.29;66.92;99603.63;5120321;28;20585;-61
2023/03/24 09:29:52;;;;;;;0.50;0.50;;;;;;;18.16;66.65;99613.06;5125112;28;20195;-68
2023/03/24 09:32:19;;;;;;;0.80;0.80;;;;;;;18.05;66.91;99605.06;5124797;27;20666;-61
2023/03/24 09:34:46;;;;;;;0.50;0.50;;;;;;;18.08;65.41;99610.09;5128849;28;20295;-61
2023/03/24 09:37:14;;;;;;;0.50;0.50;;;;;;;18.30;69.94;99595.78;5129221;27;20194;-61
2023/03/24 09:39:41;;;;;;;0.50;0.50;;;;;;;18.59;64.98;99594.09;5120332;27;20200;-61
2023/03/24 09:42:19;;;;;;;0.70;0.70;;;;;;;18.77;66.16;99595.56;5121072;27;20203;-63
2023/03/24 09:44:51;;;;;;;1.30;0.60;;;;;;;18.80;65.10;99590.19;5120659;28;20679;-61
2023/03/24 09:47:26;;;;;;;0.50;0.50;;;;;;;18.74;67.25;99590.56;5129296;28;20231;-61
2023/03/24 09:49:56;;;;;;;0.67;0.67;;;;;;;18.76;66.74;99588.72;5126349;28;20209;-62
2023/03/24 09:52:29;;;;;;;0.43;0.43;;;;;;;18.81;66.58;99588.41;5120011;28;20216;-61
2023/03/24 09:54:58;;;;;;;0.40;0.40;;;;;;;18.94;66.29;99570.31;5119542;28;20222;-61
2023/03/24 09:57:28;;;;;;;0.50;0.50;;;;;;;18.83;66.77;99578.78;5120898;28;20199;-60
2023/03/24 09:59:56;;;;;;;0.70;0.70;;;;;;;18.34;66.77;99578.25;5122063;28;20651;-61
2023/03/24 10:02:23;;;;;;;0.50;0.50;;;;;;;18.22;68.18;99571.22;5127478;27;20604;-60
2023/03/24 10:04:50;;;;;;;0.30;0.30;;;;;;;18.01;67.71;99541.31;5127081;27;20198;-62
2023/03/24 10:07:24;;;;;;;0.80;0.80;;;;;;;18.15;67.95;99562.09;5131263;27;20214;-62
2023/03/24 10:09:58;;;;;;;0.40;0.40;;;;;;;18.15;67.17;99565.53;5132301;27;20198;-61
2023/03/24 10:12:35;;;;;;;0.40;0.40;;;;;;;17.94;66.23;99555.56;5126438;27;20678;-61
2023/03/24 10:15:14;;;;;;;0.60;0.60;;;;;;;18.20;65.18;99557.47;5124942;27;20201;-61
2023/03/24 10:17:49;;;;;;;0.60;0.60;;;;;;;18.02;65.83;99555.97;5127155;27;20831;-60
2023/03/24 10:20:27;;;;;;;1.03;0.93;;;;;;;18.13;66.08;99546.63;5126747;27;20198;-61
2023/03/24 10:23:01;;;;;;;0.50;0.50;;;;;;;18.16;68.11;99549.03;5131531;27;20215;-61
2023/03/24 10:25:43;;;;;;;0.80;0.80;;;;;;;18.13;66.18;99550.97;5130702;27;20674;-62
2023/03/24 10:28:17;;;;;;;0.60;0.60;;;;;;;18.44;65.32;99548.25;5123942;27;20219;-61
2023/03/24 10:30:45;;;;;;;0.50;0.50;;;;;;;18.63;66.09;99548.00;5126974;27;20285;-60
2023/03/24 10:33:13;;;;;;;0.53;0.53;;;;;;;18.76;65.93;99541.97;5129661;27;20240;-62
2023/03/24 10:35:44;;;;;;;0.50;0.50;;;;;;;18.93;66.28;99537.50;5130459;27;20285;-62
2023/03/24 10:38:16;;;;;;;0.63;0.63;;;;;;;18.86;63.97;99527.50;5126362;27;20662;-61
2023/03/24 10:40:46;;;;;;;0.80;0.80;;;;;;;18.91;63.91;99534.97;5134323;27;20195;-61
2023/03/24 10:43:14;;;;;;;0.40;0.40;;;;;;;19.05;65.06;99532.38;5133323;27;20205;-62
2023/03/24 10:45:44;;;;;;;1.03;1.03;;;;;;;19.21;67.93;99514.03;5119496;27;20637;-65
2023/03/24 10:48:13;;;;;;;0.43;0.43;;;;;;;19.34;62.88;99525.31;5125689;27;20222;-66
2023/03/24 10:50:44;;;;;;;0.40;0.40;;;;;;;19.14;64.01;99525.75;5116983;27;20196;-66
2023/03/24 10:53:18;;;;;;;0.50;0.50;;;;;;;19.06;64.58;99496.84;5129449;27;20199;-62
2023/03/24 10:55:47;;;;;;;0.30;0.30;;;;;;;19.16;65.51;99514.31;5122965;27;20218;-61
2023/03/24 10:58:24;;;;;;;0.50;0.50;;;;;;;19.04;65.15;99514.25;5118110;27;20664;-61
2023/03/24 11:00:51;;;;;;;0.50;0.50;;;;;;;18.91;63.90;99522.00;5122536;27;20192;-61
2023/03/24 11:03:25;;;;;;;0.50;0.50;;;;;;;18.98;64.99;99509.44;5126518;27;20197;-61
2023/03/24 11:05:59;;;;;;;0.40;0.40;;;;;;;19.11;66.04;99505.16;5121437;27;20193;-62
2023/03/24 11:08:28;;;;;;;0.50;0.50;;;;;;;19.29;64.37;99501.38;5124503;27;20646;-62
2023/03/24 11:10:56;;;;;;;0.40;0.40;;;;;;;19.37;62.60;99499.13;5122240;27;20223;-62
2023/03/24 11:13:32;;;;;;;0.30;0.30;;;;;;;19.55;63.16;99484.94;5130313;27;20279;-62
2023/03/24 11:16:10;;;;;;;0.70;0.70;;;;;;;19.68;61.70;99490.19;5122069;27;20200;-62
2023/03/24 11:18:38;;;;;;;0.50;0.50;;;;;;;19.31;61.56;99474.38;5126598;27;20204;-62
2023/03/24 11:21:07;;;;;;;1.03;1.03;;;;;;;19.45;62.53;99476.09;5119367;27;20663;-61
2023/03/24 11:23:38;;;;;;;0.40;0.40;;;;;;;19.58;60.21;99469.16;5128833;27;20208;-61
2023/03/24 11:26:15;;;;;;;0.60;0.60;;;;;;;19.36;62.61;99463.66;5131688;27;20197;-61
2023/03/24 11:28:45;;;;;;;0.40;0.40;;;;;;;19.41;62.62;99448.66;5126384;27;20211;-62
2023/03/24 11:31:17;;;;;;;0.40;0.40;;;;;;;19.60;63.01;99443.06;5125597;27;20224;-62
2023/03/24 11:33:55;;;;;;;0.87;0.87;;;;;;;19.71;60.54;99449.19;5122868;27;20195;-62
2023/03/24 11:36:41;;;;;;;0.87;0.87;;;;;;;19.28;61.30;99447.75;5121707;27;20249;-62
2023/03/24 11:39:14;;;;;;;0.40;0.40;;;;;;;19.33;62.46;99437.88;5124480;27;20192;-62
2023/03/24 11:41:50;;;;;;;0.63;0.63;;;;;;;19.57;62.20;99436.28;5130925;27;20254;-61
2023/03/24 11:44:20;;;;;;;0.63;0.63;;;;;;;19.81;59.97;99429.44;5130352;27;20200;-61
2023/03/24 11:46:51;;;;;;;0.60;0.60;;;;;;;19.84;58.77;99434.44;5126991;27;20716;-61
2023/03/24 11:49:21;;;;;;;0.57;0.57;;;;;;;19.76;58.76;99421.13;5119666;27;20207;-61
2023/03/24 11:51:52;;;;;;;0.40;0.40;;;;;;;19.77;59.17;99427.16;5116111;27;20210;-62